Unadilla, Nebraska
Current Conditions -  °F | °C
As of 4:15 AM on Thursday 23 Oct 2014 (Local Time) from KAFK Reporting Station
Overcast Overcast  
Wind Chill: 61°   Ceiling: 3300
Heat Index: 61°   Visibility: 7mi
Dew Point: 61°   Wind: 9mph
Humidity: 100%   Direction: 180°S
Pressure: 30.04"   Gusts: NA
Location:  40.68°N, 96.27°W
Report Text: KAFK 230915Z AUTO 18008KT 7SM OVC033 16/16 A3004 RMK AO2 T01600160
Loading
Personal Weather Stations






























Interactive Weather Map
Tropical Storm Tracking
New forecast layout! Learn more

10-Day Weather Forecast

Advertisements
Track Severe Weather on mobile